createdAt,value
2023-09-27T00:00:13.109Z,4.87
2023-09-27T00:02:41.798Z,5.37
2023-09-27T00:05:12.664Z,5.00
2023-09-27T00:07:42.437Z,5.20
2023-09-27T00:10:12.542Z,5.07
2023-09-27T00:12:42.686Z,4.73
2023-09-27T00:15:13.138Z,4.80
2023-09-27T00:17:42.648Z,4.93
2023-09-27T00:20:14.649Z,5.20
2023-09-27T00:22:42.764Z,5.40
2023-09-27T00:25:12.762Z,5.33
2023-09-27T00:27:43.063Z,5.13
2023-09-27T00:30:15.173Z,5.10
2023-09-27T00:32:43.562Z,5.03
2023-09-27T00:35:15.822Z,5.43
2023-09-27T00:37:44.496Z,5.20
2023-09-27T00:40:15.833Z,5.77
2023-09-27T00:42:45.356Z,5.40
2023-09-27T00:45:13.380Z,6.10
2023-09-27T00:47:43.201Z,5.37
2023-09-27T00:50:11.420Z,5.37
2023-09-27T00:52:42.093Z,5.83
2023-09-27T00:55:14.263Z,5.77
2023-09-27T00:57:42.342Z,6.00
2023-09-27T01:00:13.496Z,5.57
2023-09-27T01:02:42.377Z,5.37
2023-09-27T01:05:11.572Z,5.13
2023-09-27T01:07:41.739Z,5.47
2023-09-27T01:10:11.261Z,5.10
2023-09-27T01:12:39.854Z,6.10
2023-09-27T01:15:09.189Z,5.60
2023-09-27T01:17:38.673Z,5.60
2023-09-27T01:20:08.569Z,5.90
2023-09-27T01:22:36.575Z,5.90
2023-09-27T01:25:13.636Z,6.03
2023-09-27T01:27:42.953Z,5.90
2023-09-27T01:30:11.580Z,6.00
2023-09-27T01:32:39.803Z,6.23
2023-09-27T01:35:08.793Z,5.70
2023-09-27T01:37:36.876Z,5.67
2023-09-27T01:40:10.459Z,6.60
2023-09-27T01:42:43.752Z,6.10
2023-09-27T01:45:13.863Z,5.53
2023-09-27T01:47:42.576Z,7.03
2023-09-27T01:50:11.494Z,6.00
2023-09-27T01:52:39.563Z,6.30
2023-09-27T01:55:10.324Z,5.20
2023-09-27T01:57:38.349Z,5.80
2023-09-27T02:00:12.348Z,6.00
2023-09-27T02:02:40.839Z,6.17
2023-09-27T02:05:10.630Z,6.00
2023-09-27T02:07:40.646Z,5.80
2023-09-27T02:10:11.303Z,5.73
2023-09-27T02:12:39.881Z,6.23
2023-09-27T02:15:09.598Z,6.20
2023-09-27T02:17:37.897Z,6.13
2023-09-27T02:20:07.881Z,6.23
2023-09-27T02:22:36.181Z,5.80
2023-09-27T02:25:06.322Z,6.23
2023-09-27T02:27:36.351Z,6.10
2023-09-27T02:30:07.128Z,7.27
2023-09-27T02:32:35.310Z,6.70
2023-09-27T02:35:03.785Z,7.07
2023-09-27T02:37:32.006Z,6.53
2023-09-27T02:40:00.029Z,11.00
2023-09-27T02:42:28.060Z,8.73
2023-09-27T02:44:59.541Z,9.03
2023-09-27T02:47:28.008Z,8.43
2023-09-27T02:49:56.130Z,7.43
2023-09-27T02:52:24.211Z,5.90
2023-09-27T02:54:52.281Z,7.10
2023-09-27T02:57:21.159Z,6.40
2023-09-27T02:59:49.215Z,6.23
2023-09-27T03:02:18.667Z,6.83
2023-09-27T03:04:48.612Z,6.07
2023-09-27T03:07:16.965Z,7.03
2023-09-27T03:09:45.070Z,7.30
2023-09-27T03:12:13.327Z,7.37
2023-09-27T03:14:41.273Z,7.03
2023-09-27T03:17:09.538Z,8.10
2023-09-27T03:19:38.988Z,8.17
2023-09-27T03:22:07.029Z,8.87
2023-09-27T03:24:35.495Z,8.07
2023-09-27T03:27:05.675Z,8.50
2023-09-27T03:29:33.836Z,9.57
2023-09-27T03:32:02.005Z,11.03
2023-09-27T03:34:30.025Z,10.43
2023-09-27T03:37:00.497Z,13.77
2023-09-27T03:39:30.150Z,18.57
2023-09-27T03:41:58.340Z,13.30
2023-09-27T03:44:26.682Z,13.70
2023-09-27T03:46:54.940Z,6.43
2023-09-27T03:49:23.038Z,10.37
2023-09-27T03:51:51.084Z,11.83
2023-09-27T03:54:20.548Z,13.63
2023-09-27T03:56:49.066Z,12.10
2023-09-27T03:59:17.126Z,10.13
2023-09-27T04:01:45.146Z,11.63
2023-09-27T04:04:13.262Z,12.10
2023-09-27T04:06:41.272Z,14.10
2023-09-27T04:09:10.830Z,14.93
2023-09-27T04:11:40.831Z,14.07
2023-09-27T04:14:10.232Z,10.60
2023-09-27T04:16:38.229Z,11.67
2023-09-27T04:19:06.440Z,10.93
2023-09-27T04:21:34.450Z,12.43
2023-09-27T04:24:04.529Z,14.47
2023-09-27T04:26:32.787Z,13.20
2023-09-27T04:29:02.314Z,14.50
2023-09-27T04:31:30.545Z,14.37
2023-09-27T04:33:58.810Z,13.73
2023-09-27T04:36:27.557Z,12.13
2023-09-27T04:38:55.566Z,13.10
2023-09-27T04:41:23.658Z,11.33
2023-09-27T04:43:51.746Z,11.87
2023-09-27T04:46:21.181Z,12.13
2023-09-27T04:48:49.248Z,12.27
2023-09-27T04:51:17.232Z,13.60
2023-09-27T04:53:45.238Z,14.27
2023-09-27T04:56:13.462Z,13.53
2023-09-27T04:58:42.389Z,11.80
2023-09-27T05:01:12.258Z,12.60
2023-09-27T05:03:42.255Z,12.20
2023-09-27T05:06:10.335Z,11.87
2023-09-27T05:08:38.421Z,12.00
2023-09-27T05:11:06.624Z,12.80
2023-09-27T05:13:34.748Z,13.40
2023-09-27T05:16:02.858Z,12.90
2023-09-27T05:18:31.239Z,11.33
2023-09-27T05:21:06.182Z,11.38
2023-09-27T05:23:34.261Z,12.45
2023-09-27T05:26:02.382Z,12.85
2023-09-27T05:28:31.004Z,12.50
2023-09-27T05:30:59.117Z,9.77
2023-09-27T05:33:27.208Z,7.50
2023-09-27T05:35:56.044Z,7.80
2023-09-27T05:38:26.016Z,7.53
2023-09-27T05:40:54.150Z,8.25
2023-09-27T05:43:22.177Z,8.77
2023-09-27T05:45:50.221Z,8.07
2023-09-27T05:48:18.330Z,7.72
2023-09-27T05:50:48.821Z,7.20
2023-09-27T05:53:18.801Z,7.05
2023-09-27T05:55:49.486Z,7.18
2023-09-27T05:58:20.219Z,6.47
2023-09-27T06:00:49.360Z,7.10
2023-09-27T06:03:16.581Z,7.10
2023-09-27T06:05:44.845Z,7.90
2023-09-27T06:08:12.908Z,8.50
2023-09-27T06:10:42.042Z,6.95
2023-09-27T06:13:12.068Z,7.07
2023-09-27T06:15:40.952Z,7.55
2023-09-27T06:18:09.000Z,8.80
2023-09-27T06:20:40.259Z,6.93
2023-09-27T06:23:10.827Z,7.63
2023-09-27T06:25:40.783Z,7.53
2023-09-27T06:28:08.877Z,7.15
2023-09-27T06:30:38.408Z,6.50
2023-09-27T06:33:06.632Z,6.88
2023-09-27T06:35:34.686Z,6.78
2023-09-27T06:38:02.933Z,6.13
2023-09-27T06:40:31.863Z,6.22
2023-09-27T06:43:00.622Z,6.43
2023-09-27T06:45:29.939Z,5.47
2023-09-27T06:48:00.185Z,6.32
2023-09-27T06:50:28.916Z,6.05
2023-09-27T06:53:15.435Z,5.10
2023-09-27T06:55:49.105Z,5.45
2023-09-27T06:58:24.286Z,4.80
2023-09-27T07:00:53.388Z,5.60
2023-09-27T07:03:26.885Z,5.55
2023-09-27T07:05:55.298Z,5.88
2023-09-27T07:08:23.797Z,5.63
2023-09-27T07:10:52.199Z,6.05
2023-09-27T07:13:20.492Z,5.53
2023-09-27T07:15:49.252Z,5.43
2023-09-27T07:18:17.542Z,5.70
2023-09-27T07:20:47.452Z,5.78
2023-09-27T07:23:16.797Z,5.70
2023-09-27T07:25:45.741Z,5.93
2023-09-27T07:28:13.924Z,6.70
2023-09-27T07:30:42.198Z,4.95
2023-09-27T07:33:12.966Z,5.40
2023-09-27T07:35:43.794Z,5.70
2023-09-27T07:38:13.802Z,5.38
2023-09-27T07:40:41.942Z,5.55
2023-09-27T07:43:09.950Z,6.53
2023-09-27T07:45:43.266Z,6.13
2023-09-27T07:48:11.697Z,5.28
2023-09-27T07:50:43.562Z,5.53
2023-09-27T07:53:13.158Z,5.82
2023-09-27T07:55:47.759Z,5.25
2023-09-27T07:58:15.935Z,7.15
2023-09-27T08:00:44.659Z,6.30
2023-09-27T08:03:15.275Z,5.70
2023-09-27T08:05:46.968Z,5.35
2023-09-27T08:08:16.785Z,5.47
2023-09-27T08:10:46.840Z,6.13
2023-09-27T08:13:16.564Z,5.63
2023-09-27T08:15:45.760Z,5.03
2023-09-27T08:18:16.064Z,5.28
2023-09-27T08:20:44.206Z,5.47
2023-09-27T08:23:12.548Z,5.35
2023-09-27T08:25:42.120Z,5.88
2023-09-27T08:28:11.770Z,5.35
2023-09-27T08:30:41.840Z,5.60
2023-09-27T08:33:10.358Z,5.70
2023-09-27T08:35:38.812Z,5.10
2023-09-27T08:38:07.443Z,6.45
2023-09-27T08:40:35.628Z,5.35
2023-09-27T08:43:06.433Z,5.38
2023-09-27T08:45:38.456Z,5.60
2023-09-27T08:48:08.864Z,6.22
2023-09-27T08:50:37.932Z,5.38
2023-09-27T08:53:06.569Z,5.90
2023-09-27T08:55:37.327Z,9.60
2023-09-27T08:58:09.653Z,7.50
2023-09-27T09:00:38.146Z,8.70
2023-09-27T09:03:06.754Z,8.77
2023-09-27T09:05:36.910Z,11.60
2023-09-27T09:08:06.734Z,7.50
2023-09-27T09:10:34.881Z,10.93
2023-09-27T09:13:04.803Z,5.47
2023-09-27T09:15:38.027Z,6.18
2023-09-27T09:18:10.399Z,5.07
2023-09-27T09:20:51.919Z,5.47
2023-09-27T09:23:31.406Z,6.45
2023-09-27T09:26:00.399Z,6.50
2023-09-27T09:28:28.919Z,5.07
2023-09-27T09:30:58.325Z,7.05
2023-09-27T09:33:29.618Z,6.32
2023-09-27T09:35:58.785Z,10.40
2023-09-27T09:38:31.822Z,5.53
2023-09-27T09:41:02.125Z,5.50
2023-09-27T09:43:31.598Z,8.45
2023-09-27T09:46:01.953Z,6.43
2023-09-27T09:48:31.206Z,6.88
2023-09-27T09:51:07.433Z,5.18
2023-09-27T09:53:40.802Z,10.77
2023-09-27T09:56:30.658Z,8.80
2023-09-27T09:59:04.585Z,7.70
2023-09-27T10:01:38.314Z,5.50
2023-09-27T10:04:07.936Z,7.28
2023-09-27T10:06:48.796Z,5.60
2023-09-27T10:09:18.118Z,7.75
2023-09-27T10:11:48.302Z,5.50
2023-09-27T10:14:19.270Z,5.03
2023-09-27T10:16:51.443Z,5.78
2023-09-27T10:19:30.139Z,5.88
2023-09-27T10:22:15.303Z,5.40
2023-09-27T10:24:44.409Z,5.20
2023-09-27T10:27:12.626Z,4.63
2023-09-27T10:29:59.469Z,5.28
2023-09-27T10:32:29.525Z,5.40
2023-09-27T10:34:57.813Z,4.93
2023-09-27T10:38:01.016Z,5.32
2023-09-27T10:40:29.384Z,5.50
2023-09-27T10:42:57.796Z,4.97
2023-09-27T10:45:26.025Z,5.70
2023-09-27T10:47:56.451Z,4.90
2023-09-27T10:50:32.160Z,5.00
2023-09-27T10:53:01.535Z,5.43
2023-09-27T10:55:40.081Z,4.80
2023-09-27T10:58:08.448Z,7.60
2023-09-27T11:00:36.586Z,5.28
2023-09-27T11:03:19.429Z,5.63
2023-09-27T11:05:47.713Z,5.45
2023-09-27T11:08:23.215Z,5.80
2023-09-27T11:10:53.806Z,5.13
2023-09-27T11:13:22.570Z,5.28
2023-09-27T11:15:52.044Z,5.15
2023-09-27T11:18:22.145Z,5.32
2023-09-27T11:20:50.500Z,6.97
2023-09-27T11:23:21.503Z,4.85
2023-09-27T11:25:50.589Z,5.30
2023-09-27T11:28:19.431Z,5.10
2023-09-27T11:30:47.485Z,5.82
2023-09-27T11:33:18.153Z,5.90
2023-09-27T11:35:52.024Z,5.50
2023-09-27T11:38:20.169Z,5.00
2023-09-27T11:40:49.860Z,5.20
2023-09-27T11:43:18.829Z,5.82
2023-09-27T11:45:48.881Z,5.40
2023-09-27T11:48:18.695Z,5.68
2023-09-27T11:50:47.636Z,5.55
2023-09-27T11:53:17.469Z,5.63
2023-09-27T11:55:48.448Z,5.47
2023-09-27T11:58:16.610Z,5.47
2023-09-27T12:00:46.491Z,5.40
2023-09-27T12:03:14.603Z,5.93
2023-09-27T12:05:43.126Z,6.28
2023-09-27T12:08:11.470Z,5.97
2023-09-27T12:10:40.938Z,5.43
2023-09-27T12:13:08.932Z,5.70
2023-09-27T12:15:37.199Z,4.90
2023-09-27T12:18:05.930Z,6.15
2023-09-27T12:20:40.887Z,5.28
2023-09-27T12:23:11.593Z,5.32
2023-09-27T12:25:41.372Z,5.15
2023-09-27T12:28:09.575Z,5.28
2023-09-27T12:30:38.443Z,5.55
2023-09-27T12:33:06.744Z,5.80
2023-09-27T12:35:34.922Z,5.10
2023-09-27T12:38:05.483Z,5.35
2023-09-27T12:40:34.368Z,5.28
2023-09-27T12:43:04.158Z,5.60
2023-09-27T12:45:32.337Z,5.07
2023-09-27T12:48:01.020Z,5.40
2023-09-27T12:50:29.360Z,6.07
2023-09-27T12:52:57.734Z,5.95
2023-09-27T12:55:26.233Z,5.32
2023-09-27T12:57:54.399Z,5.45
2023-09-27T13:00:24.791Z,5.78
2023-09-27T13:02:53.631Z,5.90
2023-09-27T13:05:21.988Z,5.63
2023-09-27T13:07:52.703Z,5.25
2023-09-27T13:10:20.800Z,5.40
2023-09-27T13:12:48.956Z,7.32
2023-09-27T13:15:17.949Z,5.32
2023-09-27T13:17:47.760Z,5.53
2023-09-27T13:20:16.809Z,5.68
2023-09-27T13:22:45.006Z,5.80
2023-09-27T13:25:13.476Z,6.10
2023-09-27T13:27:42.001Z,5.70
2023-09-27T13:30:22.060Z,5.20
2023-09-27T13:32:59.845Z,5.57
2023-09-27T13:35:28.344Z,5.85
2023-09-27T13:37:56.914Z,6.10
2023-09-27T13:40:25.603Z,5.60
2023-09-27T13:42:53.665Z,6.20
2023-09-27T13:45:22.150Z,5.70
2023-09-27T13:47:50.253Z,6.50
2023-09-27T13:50:20.175Z,5.82
2023-09-27T13:52:48.545Z,6.25
2023-09-27T13:55:17.130Z,6.35
2023-09-27T13:57:45.244Z,6.55
2023-09-27T14:00:19.282Z,5.72
2023-09-27T14:02:47.746Z,6.43
2023-09-27T14:05:15.976Z,7.07
2023-09-27T14:07:45.607Z,6.78
2023-09-27T14:10:13.779Z,7.50
2023-09-27T14:12:41.975Z,6.25
2023-09-27T14:15:13.095Z,5.80
2023-09-27T14:17:42.979Z,7.97
2023-09-27T14:20:15.862Z,8.02
2023-09-27T14:22:46.901Z,5.68
2023-09-27T14:25:15.074Z,5.97
2023-09-27T14:27:43.376Z,5.47
2023-09-27T14:30:12.441Z,6.63
2023-09-27T14:32:43.541Z,6.32
2023-09-27T14:35:13.263Z,5.20
2023-09-27T14:37:42.513Z,7.18
2023-09-27T14:40:13.817Z,6.55
2023-09-27T14:42:44.169Z,6.90
2023-09-27T14:45:28.545Z,7.53
2023-09-27T14:48:00.438Z,6.65
2023-09-27T14:50:28.780Z,5.35
2023-09-27T14:52:56.867Z,5.13
2023-09-27T14:55:26.879Z,6.38
2023-09-27T14:57:55.333Z,5.90
2023-09-27T15:00:23.881Z,8.02
2023-09-27T15:02:52.083Z,7.00
2023-09-27T15:05:21.622Z,5.07
2023-09-27T15:07:50.432Z,5.25
2023-09-27T15:10:18.930Z,5.75
2023-09-27T15:12:48.611Z,5.30
2023-09-27T15:15:16.720Z,6.28
2023-09-27T15:17:46.052Z,6.18
2023-09-27T15:20:15.831Z,5.72
2023-09-27T15:22:44.132Z,5.60
2023-09-27T15:25:12.402Z,5.68
2023-09-27T15:27:40.654Z,6.88
2023-09-27T15:30:12.313Z,5.00
2023-09-27T15:32:40.837Z,6.75
2023-09-27T15:35:09.962Z,6.25
2023-09-27T15:37:38.946Z,5.18
2023-09-27T15:40:07.843Z,8.68
2023-09-27T15:42:35.985Z,6.32
2023-09-27T15:45:11.817Z,6.03
2023-09-27T15:47:40.371Z,5.00
2023-09-27T15:50:10.428Z,5.95
2023-09-27T15:52:38.910Z,6.97
2023-09-27T15:55:08.193Z,5.90
2023-09-27T15:57:36.576Z,5.38
2023-09-27T16:00:05.520Z,7.20
2023-09-27T16:02:35.080Z,5.22
2023-09-27T16:05:05.248Z,5.40
2023-09-27T16:07:33.712Z,6.55
2023-09-27T16:10:01.745Z,5.20
2023-09-27T16:12:29.771Z,6.43
2023-09-27T16:14:57.791Z,5.60
2023-09-27T16:17:25.991Z,5.30
2023-09-27T16:19:55.783Z,10.98
2023-09-27T16:22:24.209Z,5.57
2023-09-27T16:24:52.342Z,6.25
2023-09-27T16:27:20.685Z,5.85
2023-09-27T16:29:48.945Z,6.90
2023-09-27T16:32:17.576Z,7.22
2023-09-27T16:34:45.863Z,6.43
2023-09-27T16:37:16.172Z,5.03
2023-09-27T16:39:44.190Z,5.88
2023-09-27T16:42:12.209Z,7.20
2023-09-27T16:44:40.279Z,5.60
2023-09-27T16:47:08.432Z,7.88
2023-09-27T16:49:36.641Z,5.68
2023-09-27T16:52:05.001Z,7.40
2023-09-27T16:54:34.877Z,5.68
2023-09-27T16:57:03.786Z,5.78
2023-09-27T16:59:31.861Z,5.30
2023-09-27T17:02:00.051Z,5.45
2023-09-27T17:04:28.218Z,5.53
2023-09-27T17:06:56.445Z,5.60
2023-09-27T17:09:25.281Z,7.60
2023-09-27T17:11:54.853Z,5.97
2023-09-27T17:14:24.221Z,5.60
2023-09-27T17:16:52.339Z,4.57
2023-09-27T17:19:24.917Z,6.65
2023-09-27T17:21:54.163Z,5.00
2023-09-27T17:24:22.719Z,5.53
2023-09-27T17:26:50.973Z,4.72
2023-09-27T17:29:20.485Z,4.90
2023-09-27T17:31:49.958Z,5.57
2023-09-27T17:34:18.275Z,4.90
2023-09-27T17:36:46.728Z,5.70
2023-09-27T17:39:15.679Z,6.43
2023-09-27T17:41:44.640Z,9.38
2023-09-27T17:44:12.805Z,8.07
2023-09-27T17:46:42.265Z,8.00
2023-09-27T17:49:10.307Z,7.93
2023-09-27T17:51:39.379Z,6.80
2023-09-27T17:54:08.567Z,7.07
2023-09-27T17:56:36.745Z,6.80
2023-09-27T17:59:04.866Z,6.32
2023-09-27T18:01:33.025Z,6.97
2023-09-27T18:04:02.625Z,6.90
2023-09-27T18:06:30.824Z,7.15
2023-09-27T18:08:58.919Z,7.43
2023-09-27T18:11:26.924Z,7.05
2023-09-27T18:13:55.328Z,6.88
2023-09-27T18:16:23.779Z,6.65
2023-09-27T18:18:52.937Z,6.30
2023-09-27T18:21:24.543Z,5.97
2023-09-27T18:23:53.067Z,5.75
2023-09-27T18:26:21.594Z,5.72
2023-09-27T18:28:50.028Z,5.47
2023-09-27T18:31:19.555Z,5.47
2023-09-27T18:33:47.828Z,6.15
2023-09-27T18:36:16.807Z,5.50
2023-09-27T18:38:46.310Z,5.88
2023-09-27T18:41:14.364Z,5.80
2023-09-27T18:43:42.578Z,5.63
2023-09-27T18:46:10.653Z,5.15
2023-09-27T18:48:38.964Z,4.78
2023-09-27T18:51:06.864Z,6.15
2023-09-27T18:53:35.001Z,4.90
2023-09-27T18:56:04.525Z,5.53
2023-09-27T18:58:32.684Z,5.15
2023-09-27T19:01:03.141Z,5.63
2023-09-27T19:03:33.534Z,5.60
2023-09-27T19:06:01.525Z,5.57
2023-09-27T19:08:29.466Z,5.10
2023-09-27T19:10:57.700Z,5.28
2023-09-27T19:13:27.009Z,4.80
2023-09-27T19:15:55.007Z,4.75
2023-09-27T19:18:23.209Z,5.22
2023-09-27T19:20:53.182Z,4.75
2023-09-27T19:23:21.213Z,4.80
2023-09-27T19:25:49.186Z,5.20
2023-09-27T19:28:17.143Z,5.05
2023-09-27T19:30:46.477Z,4.55
2023-09-27T19:33:14.464Z,5.25
2023-09-27T19:35:42.346Z,5.30
2023-09-27T19:38:11.220Z,5.20
2023-09-27T19:40:39.464Z,5.25
2023-09-27T19:43:07.605Z,4.85
2023-09-27T19:45:35.623Z,5.40
2023-09-27T19:48:07.219Z,4.85
2023-09-27T19:50:36.196Z,4.25
2023-09-27T19:53:04.208Z,5.63
2023-09-27T19:55:32.367Z,5.63
2023-09-27T19:58:01.494Z,5.38
2023-09-27T20:00:29.474Z,5.45
2023-09-27T20:02:57.462Z,5.18
2023-09-27T20:05:28.206Z,4.90
2023-09-27T20:07:56.313Z,4.72
2023-09-27T20:10:26.016Z,4.45
2023-09-27T20:12:53.957Z,4.28
2023-09-27T20:15:23.070Z,5.43
2023-09-27T20:17:51.129Z,4.97
2023-09-27T20:20:19.103Z,4.90
2023-09-27T20:22:48.452Z,4.55
2023-09-27T20:25:17.090Z,5.00
2023-09-27T20:27:45.012Z,6.32
2023-09-27T20:30:14.049Z,6.10
2023-09-27T20:32:42.579Z,7.38
2023-09-27T20:35:11.643Z,5.18
2023-09-27T20:37:42.948Z,5.72
2023-09-27T20:40:13.177Z,6.90
2023-09-27T20:42:41.071Z,5.72
2023-09-27T20:45:10.439Z,5.57
2023-09-27T20:47:40.295Z,5.95
2023-09-27T20:50:12.096Z,6.35
2023-09-27T20:52:40.398Z,6.35
2023-09-27T20:55:11.069Z,6.22
2023-09-27T20:57:40.914Z,5.40
2023-09-27T21:00:11.414Z,6.63
2023-09-27T21:02:40.650Z,8.73
2023-09-27T21:05:09.489Z,6.15
2023-09-27T21:07:38.597Z,15.25
2023-09-27T21:10:08.403Z,7.10
2023-09-27T21:12:36.327Z,9.43
2023-09-27T21:15:06.970Z,7.00
2023-09-27T21:17:35.408Z,6.78
2023-09-27T21:20:04.316Z,7.13
2023-09-27T21:22:32.329Z,7.03
2023-09-27T21:25:00.414Z,6.78
2023-09-27T21:27:28.356Z,7.07
2023-09-27T21:29:56.397Z,8.93
2023-09-27T21:32:26.172Z,9.73
2023-09-27T21:34:54.176Z,8.30
2023-09-27T21:37:22.115Z,7.10
2023-09-27T21:39:50.448Z,7.55
2023-09-27T21:42:19.078Z,6.53
2023-09-27T21:44:47.098Z,7.63
2023-09-27T21:47:15.018Z,7.82
2023-09-27T21:49:44.414Z,7.43
2023-09-27T21:52:12.588Z,7.30
2023-09-27T21:54:40.495Z,6.68
2023-09-27T21:57:08.439Z,5.47
2023-09-27T21:59:36.367Z,5.88
2023-09-27T22:02:06.123Z,5.80
2023-09-27T22:04:34.197Z,4.90
2023-09-27T22:07:06.239Z,5.50
2023-09-27T22:09:34.588Z,5.03
2023-09-27T22:12:02.598Z,4.80
2023-09-27T22:14:30.489Z,4.73
2023-09-27T22:17:04.051Z,4.77
2023-09-27T22:19:31.998Z,4.50
2023-09-27T22:22:00.585Z,4.50
2023-09-27T22:24:31.824Z,4.70
2023-09-27T22:27:02.094Z,4.53
2023-09-27T22:29:32.807Z,4.67
2023-09-27T22:32:01.836Z,4.63
2023-09-27T22:34:38.427Z,5.10
2023-09-27T22:37:09.160Z,5.33
2023-09-27T22:39:43.713Z,5.43
2023-09-27T22:42:14.300Z,5.40
2023-09-27T22:44:43.595Z,5.40
2023-09-27T22:47:11.522Z,4.83
2023-09-27T22:49:41.511Z,5.40
2023-09-27T22:52:10.456Z,4.90
2023-09-27T22:54:40.937Z,4.90
2023-09-27T22:57:08.784Z,5.23
2023-09-27T22:59:39.210Z,4.63
2023-09-27T23:02:11.072Z,4.90
2023-09-27T23:04:39.333Z,4.50
2023-09-27T23:07:17.947Z,5.47
2023-09-27T23:09:48.550Z,5.23
2023-09-27T23:12:20.600Z,5.47
2023-09-27T23:15:06.866Z,4.97
2023-09-27T23:17:44.748Z,5.10
2023-09-27T23:20:16.349Z,4.43
2023-09-27T23:22:57.677Z,5.10
2023-09-27T23:25:45.026Z,4.93
2023-09-27T23:28:18.518Z,4.57
2023-09-27T23:30:51.221Z,5.03
2023-09-27T23:33:19.583Z,5.30
2023-09-27T23:35:46.813Z,4.67
2023-09-27T23:38:29.762Z,4.77
2023-09-27T23:41:00.606Z,4.60
2023-09-27T23:43:38.831Z,4.60
2023-09-27T23:46:08.392Z,4.90
2023-09-27T23:48:36.440Z,4.87
2023-09-27T23:51:05.855Z,5.37
2023-09-27T23:53:34.136Z,4.60
2023-09-27T23:56:03.422Z,5.03
2023-09-27T23:58:33.840Z,4.73
